Time;durP1;ratioP1;P1;durP2;ratioP2;P2;SDS_P1;SDS_P2;PMS_P1;PMS_P2;Temp;Humidity;BMP_temperature;BMP_pressure;BME280_temperature;BME280_humidity;BME280_pressure;Samples;Min_cycle;Max_cycle;Signal;HPM_P1;HPM_P2
2022/07/14 00:00:16;;;;;;;5.03;1.63;;;18.40;67.70;;;;;;5052723;28;20511;-67
2022/07/14 00:02:42;;;;;;;4.82;1.52;;;18.40;67.90;;;;;;5045093;28;20021;-68
2022/07/14 00:05:07;;;;;;;3.63;1.42;;;18.40;68.00;;;;;;5042822;28;20503;-67
2022/07/14 00:07:33;;;;;;;4.50;1.40;;;18.30;68.10;;;;;;5040884;28;20037;-68
2022/07/14 00:09:59;;;;;;;6.07;1.75;;;18.30;68.30;;;;;;5045754;28;20029;-68
2022/07/14 00:12:24;;;;;;;3.75;1.33;;;18.30;68.30;;;;;;5042293;28;20114;-68
2022/07/14 00:14:50;;;;;;;5.38;1.50;;;18.20;68.40;;;;;;5043112;28;20029;-68
2022/07/14 00:17:15;;;;;;;4.47;1.50;;;18.10;68.40;;;;;;5043235;28;20053;-68
2022/07/14 00:19:41;;;;;;;5.20;1.40;;;18.10;68.50;;;;;;5042213;28;20110;-69
2022/07/14 00:22:06;;;;;;;5.43;1.75;;;18.00;68.60;;;;;;5047352;28;20062;-69
2022/07/14 00:24:32;;;;;;;5.65;1.65;;;18.00;68.80;;;;;;5047354;28;20032;-68
2022/07/14 00:26:57;;;;;;;4.35;1.40;;;17.90;68.90;;;;;;5050686;28;20017;-68
2022/07/14 00:29:23;;;;;;;4.40;1.40;;;17.90;69.00;;;;;;5046323;28;20021;-68
2022/07/14 00:31:48;;;;;;;7.18;1.90;;;17.90;69.00;;;;;;5051208;28;20075;-67
2022/07/14 00:34:14;;;;;;;5.55;1.98;;;17.80;69.30;;;;;;5046321;28;20530;-67
2022/07/14 00:36:39;;;;;;;6.82;2.00;;;17.70;69.50;;;;;;5042177;28;20136;-67
2022/07/14 00:39:05;;;;;;;5.53;1.60;;;17.70;69.60;;;;;;5049234;28;20032;-67
2022/07/14 00:41:30;;;;;;;5.25;1.58;;;17.60;69.70;;;;;;5051589;28;20033;-67
2022/07/14 00:43:56;;;;;;;3.30;1.50;;;17.50;69.80;;;;;;5045539;28;20021;-67
2022/07/14 00:46:21;;;;;;;5.05;1.83;;;17.50;69.90;;;;;;5051760;28;20029;-68
2022/07/14 00:48:47;;;;;;;7.10;1.77;;;17.40;70.20;;;;;;5043703;28;20028;-68
2022/07/14 00:51:13;;;;;;;4.40;1.50;;;17.40;70.30;;;;;;5052000;28;20017;-68
2022/07/14 00:53:39;;;;;;;5.07;1.70;;;17.40;70.30;;;;;;5046014;28;20033;-69
2022/07/14 00:56:04;;;;;;;5.88;1.80;;;17.40;70.20;;;;;;5051533;28;20025;-67
2022/07/14 00:58:30;;;;;;;5.60;1.65;;;17.40;70.10;;;;;;5041010;28;20029;-67
2022/07/14 01:00:56;;;;;;;4.13;1.40;;;17.50;70.10;;;;;;5043122;28;20033;-68
2022/07/14 01:03:21;;;;;;;6.55;1.90;;;17.50;70.10;;;;;;5046649;28;20025;-68
2022/07/14 01:05:47;;;;;;;6.25;1.73;;;17.60;70.00;;;;;;5050106;28;20033;-68
2022/07/14 01:08:12;;;;;;;5.15;1.52;;;17.60;69.90;;;;;;5051656;28;20071;-68
2022/07/14 01:10:38;;;;;;;5.00;1.42;;;17.60;69.80;;;;;;5051545;28;20029;-68
2022/07/14 01:13:05;;;;;;;5.93;1.83;;;17.70;69.80;;;;;;5046550;28;20702;-68
2022/07/14 01:15:32;;;;;;;5.05;1.60;;;17.70;69.70;;;;;;5049540;28;20040;-68
2022/07/14 01:17:58;;;;;;;4.82;1.85;;;17.70;69.70;;;;;;5046790;28;20075;-68
2022/07/14 01:20:24;;;;;;;7.15;1.77;;;17.60;69.70;;;;;;5050531;28;20025;-68
2022/07/14 01:22:49;;;;;;;6.28;1.80;;;17.60;69.70;;;;;;5051102;28;20104;-68
2022/07/14 01:25:17;;;;;;;4.60;1.52;;;17.60;69.70;;;;;;5050311;28;20045;-68
2022/07/14 01:27:43;;;;;;;4.57;1.52;;;17.60;69.80;;;;;;5046501;28;20017;-68
2022/07/14 01:30:09;;;;;;;5.03;1.58;;;17.60;69.80;;;;;;5050926;28;20108;-68
2022/07/14 01:32:35;;;;;;;6.05;1.80;;;17.60;69.90;;;;;;5044693;28;20057;-68
2022/07/14 01:35:02;;;;;;;3.40;1.50;;;17.60;69.90;;;;;;5045449;28;20051;-68
2022/07/14 01:37:27;;;;;;;6.25;1.65;;;17.50;69.80;;;;;;5049938;28;20108;-68
2022/07/14 01:39:53;;;;;;;5.63;1.67;;;17.50;70.00;;;;;;5050476;28;20105;-68
2022/07/14 01:42:19;;;;;;;5.40;1.50;;;17.40;70.00;;;;;;5040006;28;20108;-68
2022/07/14 01:44:44;;;;;;;5.90;1.73;;;17.40;70.00;;;;;;5048806;28;20045;-68
2022/07/14 01:47:10;;;;;;;4.20;1.48;;;17.40;70.00;;;;;;5049922;28;20081;-67
2022/07/14 01:49:36;;;;;;;4.13;1.55;;;17.50;69.90;;;;;;5049500;28;20047;-67
2022/07/14 01:52:02;;;;;;;6.75;1.77;;;17.50;69.80;;;;;;5048469;28;20025;-68
2022/07/14 01:54:29;;;;;;;5.55;1.60;;;17.50;69.70;;;;;;5045553;28;20048;-68
2022/07/14 01:56:55;;;;;;;5.20;1.67;;;17.50;69.60;;;;;;5049604;28;20105;-68
2022/07/14 01:59:20;;;;;;;3.60;1.40;;;17.50;70.30;;;;;;5048294;28;20036;-68
2022/07/14 02:01:46;;;;;;;4.38;1.30;;;17.50;69.60;;;;;;5049994;28;20029;-69
2022/07/14 02:04:14;;;;;;;3.72;1.40;;;17.50;69.70;;;;;;5048105;28;20025;-69
2022/07/14 02:06:44;;;;;;;5.05;1.70;;;17.40;69.60;;;;;;5044428;28;20074;-69
2022/07/14 02:09:11;;;;;;;4.75;1.70;;;17.40;69.60;;;;;;5043737;28;20024;-68
2022/07/14 02:14:22;;;;;;;4.82;1.50;;;17.40;69.60;;;;;;5042742;28;20163;-68
2022/07/14 02:16:47;;;;;;;4.65;1.60;;;17.30;69.60;;;;;;5048704;28;20497;-68
2022/07/14 02:19:13;;;;;;;5.38;1.63;;;17.30;69.60;;;;;;5049361;28;20036;-68
2022/07/14 02:21:40;;;;;;;4.57;1.65;;;17.30;69.70;;;;;;5049951;28;20031;-68
2022/07/14 02:24:07;;;;;;;4.05;1.40;;;17.20;69.70;;;;;;5047479;28;20025;-67
2022/07/14 02:26:33;;;;;;;5.97;1.60;;;17.20;69.80;;;;;;5050353;28;20526;-67
2022/07/14 02:28:58;;;;;;;4.38;1.40;;;17.10;69.70;;;;;;5046926;28;20021;-67
2022/07/14 02:31:24;;;;;;;2.78;1.20;;;17.10;69.90;;;;;;5047425;28;20025;-68
2022/07/14 02:33:49;;;;;;;3.95;1.50;;;17.10;70.00;;;;;;5046047;28;20028;-68
2022/07/14 02:36:15;;;;;;;5.68;1.48;;;17.00;69.90;;;;;;5048830;28;20031;-68
2022/07/14 02:38:41;;;;;;;2.55;1.30;;;17.00;70.00;;;;;;5037699;28;20029;-68
2022/07/14 02:41:07;;;;;;;3.30;1.40;;;17.00;70.00;;;;;;5049625;28;20484;-68
2022/07/14 02:43:33;;;;;;;3.75;1.35;;;17.00;70.00;;;;;;5049830;28;20044;-68
2022/07/14 02:45:59;;;;;;;6.07;1.60;;;17.00;70.00;;;;;;5046975;28;20025;-68
2022/07/14 02:48:25;;;;;;;5.75;1.73;;;17.00;70.00;;;;;;5042452;28;20031;-68
2022/07/14 02:50:56;;;;;;;5.57;1.35;;;16.90;70.00;;;;;;5046682;28;20108;-68
2022/07/14 02:53:22;;;;;;;5.28;1.63;;;16.90;69.90;;;;;;5045473;28;20030;-68
2022/07/14 02:55:47;;;;;;;4.13;1.38;;;16.90;70.00;;;;;;5048064;28;20120;-68
2022/07/14 02:58:13;;;;;;;4.47;1.48;;;16.90;70.00;;;;;;5049178;28;20024;-69
2022/07/14 03:00:39;;;;;;;3.83;1.65;;;16.90;70.00;;;;;;5038685;28;20438;-69
2022/07/14 03:03:06;;;;;;;5.13;1.55;;;16.90;69.90;;;;;;5046761;28;20024;-68
2022/07/14 03:05:31;;;;;;;3.42;1.50;;;16.80;70.00;;;;;;5039553;28;20030;-68
2022/07/14 03:07:57;;;;;;;5.57;1.75;;;16.80;70.10;;;;;;5044784;28;20575;-68
2022/07/14 03:10:23;;;;;;;4.40;1.67;;;16.80;70.30;;;;;;5035982;28;20527;-68
2022/07/14 03:12:48;;;;;;;5.65;1.90;;;16.80;70.20;;;;;;5047472;28;20538;-68
2022/07/14 03:15:14;;;;;;;5.20;1.73;;;16.80;70.00;;;;;;5036249;28;20025;-68
2022/07/14 03:17:39;;;;;;;4.57;1.70;;;16.80;69.90;;;;;;5048961;28;20025;-68
2022/07/14 03:20:06;;;;;;;4.90;1.75;;;16.80;69.90;;;;;;5047676;28;20075;-68
2022/07/14 03:22:32;;;;;;;4.13;1.30;;;16.80;69.80;;;;;;5048211;28;20040;-68
2022/07/14 03:24:58;;;;;;;5.18;1.50;;;16.70;69.90;;;;;;5048797;28;20024;-68
2022/07/14 03:27:24;;;;;;;3.92;1.40;;;16.70;69.80;;;;;;5048047;28;20017;-68
2022/07/14 03:29:50;;;;;;;4.22;1.40;;;16.70;69.80;;;;;;5049093;28;20040;-68
2022/07/14 03:32:15;;;;;;;3.97;1.50;;;16.70;69.80;;;;;;5047615;28;20036;-68
2022/07/14 03:34:41;;;;;;;5.25;1.67;;;16.70;69.90;;;;;;5049281;28;20032;-68
2022/07/14 03:37:06;;;;;;;5.80;1.70;;;16.70;69.90;;;;;;5046587;28;20031;-69
2022/07/14 03:39:32;;;;;;;4.00;1.35;;;16.60;70.00;;;;;;5048287;28;20027;-67
2022/07/14 03:41:57;;;;;;;5.07;1.45;;;16.60;70.10;;;;;;5039999;28;20574;-69
2022/07/14 03:44:23;;;;;;;4.95;1.48;;;16.60;70.30;;;;;;5048619;28;20025;-68
2022/07/14 03:46:48;;;;;;;3.97;1.33;;;16.60;70.40;;;;;;5046996;28;20025;-66
2022/07/14 03:49:14;;;;;;;5.28;1.63;;;16.60;70.40;;;;;;5048122;28;20025;-67
2022/07/14 03:51:41;;;;;;;6.20;1.50;;;16.60;70.40;;;;;;5047157;28;20029;-67
2022/07/14 03:54:08;;;;;;;5.50;1.60;;;16.60;70.40;;;;;;5047106;28;20156;-67
2022/07/14 03:56:34;;;;;;;3.38;1.40;;;16.60;70.50;;;;;;5046458;28;20531;-67
2022/07/14 03:58:59;;;;;;;5.32;1.75;;;16.60;70.50;;;;;;5041296;28;20028;-67
2022/07/14 04:01:25;;;;;;;3.60;1.40;;;16.50;70.60;;;;;;5042168;28;20037;-67
2022/07/14 04:03:51;;;;;;;5.32;2.00;;;16.50;70.60;;;;;;5049132;28;20033;-67
2022/07/14 04:06:16;;;;;;;6.30;1.40;;;16.50;70.70;;;;;;5047978;28;20035;-68
2022/07/14 04:08:44;;;;;;;3.85;1.40;;;16.50;70.70;;;;;;5048728;28;20055;-68
2022/07/14 04:11:10;;;;;;;3.60;1.30;;;16.50;70.70;;;;;;5040345;28;20124;-68
2022/07/14 04:13:36;;;;;;;5.45;1.98;;;16.50;70.60;;;;;;5051999;28;20597;-67
2022/07/14 04:16:01;;;;;;;4.13;1.35;;;16.50;70.60;;;;;;5051383;28;20104;-67
2022/07/14 04:18:27;;;;;;;4.68;1.60;;;16.50;70.60;;;;;;5049309;28;20648;-68
2022/07/14 04:20:54;;;;;;;5.00;1.50;;;16.50;70.60;;;;;;5044013;28;20029;-68
2022/07/14 04:23:20;;;;;;;3.97;1.35;;;16.50;70.60;;;;;;5038658;28;20571;-69
2022/07/14 04:25:46;;;;;;;5.43;1.50;;;16.50;70.60;;;;;;5042589;28;20105;-69
2022/07/14 04:28:11;;;;;;;3.65;1.50;;;16.50;70.70;;;;;;5050686;28;20108;-69
2022/07/14 04:30:37;;;;;;;5.82;1.58;;;16.50;70.70;;;;;;5051916;28;20029;-68
2022/07/14 04:33:02;;;;;;;5.53;1.65;;;16.50;70.80;;;;;;5049871;28;20051;-69
2022/07/14 04:35:28;;;;;;;5.82;1.55;;;16.50;70.90;;;;;;5047084;28;20064;-69
2022/07/14 04:37:53;;;;;;;4.38;1.60;;;16.50;71.00;;;;;;5045578;28;20057;-67
2022/07/14 04:40:19;;;;;;;5.38;1.63;;;16.50;71.20;;;;;;5038284;28;20029;-69
2022/07/14 04:42:44;;;;;;;4.90;1.70;;;16.50;71.30;;;;;;5044134;28;20037;-68
2022/07/14 04:45:10;;;;;;;3.30;1.50;;;16.50;71.20;;;;;;5046091;28;20043;-68
2022/07/14 04:47:36;;;;;;;6.60;1.70;;;16.60;71.20;;;;;;5043328;28;20032;-67
2022/07/14 04:52:47;;;;;;;3.70;1.35;;;16.50;71.10;;;;;;5042786;28;20052;-67
2022/07/14 04:55:14;;;;;;;4.05;1.45;;;16.60;71.20;;;;;;5048655;28;20055;-67
2022/07/14 04:57:40;;;;;;;4.18;1.30;;;16.70;71.10;;;;;;5049399;28;20032;-67
2022/07/14 05:00:06;;;;;;;4.38;1.40;;;16.70;70.70;;;;;;5044413;28;20021;-67
2022/07/14 05:02:32;;;;;;;4.75;1.50;;;16.80;70.60;;;;;;5038829;28;20480;-67
2022/07/14 05:04:58;;;;;;;4.07;1.20;;;17.00;70.40;;;;;;5052149;28;20033;-66
2022/07/14 05:07:24;;;;;;;3.63;1.20;;;17.80;69.10;;;;;;5047514;28;20013;-66
2022/07/14 05:09:50;;;;;;;4.47;1.30;;;18.80;66.80;;;;;;5046860;28;20388;-67
2022/07/14 05:12:17;;;;;;;3.95;1.30;;;19.60;64.40;;;;;;5045897;28;20017;-67
2022/07/14 05:14:43;;;;;;;11.70;1.95;;;20.40;62.10;;;;;;5042541;28;20100;-67
2022/07/14 05:17:09;;;;;;;4.72;1.40;;;21.20;60.10;;;;;;5044841;28;20125;-67
2022/07/14 05:19:34;;;;;;;3.40;1.50;;;21.80;58.60;;;;;;5044985;28;20029;-67
2022/07/14 05:22:00;;;;;;;4.53;1.40;;;22.30;57.10;;;;;;5050794;28;20031;-68
2022/07/14 05:24:26;;;;;;;3.28;1.20;;;22.90;56.10;;;;;;5045722;28;20368;-68
2022/07/14 05:26:51;;;;;;;4.03;1.30;;;23.20;55.10;;;;;;5043708;28;21515;-68
2022/07/14 05:29:17;;;;;;;4.93;1.33;;;23.50;54.40;;;;;;5044235;28;20021;-67
2022/07/14 05:31:43;;;;;;;2.65;1.10;;;23.80;53.70;;;;;;5050877;28;20075;-67
2022/07/14 05:34:08;;;;;;;3.40;1.27;;;24.10;53.10;;;;;;5048155;28;20032;-67
2022/07/14 05:36:35;;;;;;;4.15;1.30;;;24.20;52.70;;;;;;5042593;28;20029;-68
2022/07/14 05:39:01;;;;;;;5.28;1.40;;;24.50;52.10;;;;;;5047856;28;20020;-68
2022/07/14 05:41:26;;;;;;;4.47;1.40;;;24.70;51.50;;;;;;5047135;28;20044;-68
2022/07/14 05:43:52;;;;;;;4.03;1.30;;;24.80;51.00;;;;;;5048854;28;20029;-68
2022/07/14 05:46:18;;;;;;;4.35;1.42;;;25.00;50.80;;;;;;5046353;28;20025;-68
2022/07/14 05:48:43;;;;;;;4.30;1.50;;;25.20;51.20;;;;;;5046593;28;20104;-68
2022/07/14 05:51:14;;;;;;;4.45;1.25;;;25.40;50.10;;;;;;5048201;28;20032;-67
2022/07/14 05:53:41;;;;;;;4.77;1.40;;;25.50;49.80;;;;;;5042298;28;20047;-67
2022/07/14 05:56:08;;;;;;;5.15;1.40;;;25.50;49.70;;;;;;5041769;28;20361;-68
2022/07/14 05:58:35;;;;;;;3.92;1.45;;;25.60;49.50;;;;;;5042482;28;20537;-68
2022/07/14 06:01:01;;;;;;;4.22;1.50;;;25.70;49.50;;;;;;5040804;28;20507;-68
2022/07/14 06:03:27;;;;;;;4.45;1.25;;;25.80;49.20;;;;;;5041734;28;20484;-67
2022/07/14 06:05:53;;;;;;;2.97;0.98;;;25.80;49.10;;;;;;5041608;28;20029;-67
2022/07/14 06:08:19;;;;;;;5.45;1.98;;;25.90;49.00;;;;;;5040459;28;20548;-68
2022/07/14 06:10:44;;;;;;;6.70;1.70;;;25.20;48.70;;;;;;5042650;28;20025;-68
2022/07/14 06:13:10;;;;;;;4.82;1.38;;;24.60;50.50;;;;;;5040013;28;20683;-68
2022/07/14 06:15:36;;;;;;;4.55;1.40;;;24.60;51.20;;;;;;5042956;28;20025;-67
2022/07/14 06:18:02;;;;;;;5.60;1.20;;;24.80;51.90;;;;;;5041226;28;20812;-66
2022/07/14 06:20:28;;;;;;;4.63;1.20;;;24.80;51.00;;;;;;5040815;28;20490;-67
2022/07/14 06:22:54;;;;;;;5.20;1.50;;;24.80;51.10;;;;;;5045934;28;20025;-66
2022/07/14 06:25:20;;;;;;;4.20;1.40;;;24.80;51.20;;;;;;5044256;28;20020;-67
2022/07/14 06:27:45;;;;;;;4.30;1.35;;;24.60;51.30;;;;;;5040697;28;20021;-66
2022/07/14 06:30:11;;;;;;;4.95;1.40;;;24.40;51.60;;;;;;5038449;28;20036;-68
2022/07/14 06:32:41;;;;;;;3.10;1.27;;;24.10;51.90;;;;;;5041952;28;20047;-68
2022/07/14 06:35:08;;;;;;;5.35;1.65;;;23.70;52.40;;;;;;5038566;28;20450;-68
2022/07/14 06:37:34;;;;;;;4.07;1.60;;;23.50;53.00;;;;;;5042099;28;20514;-68
2022/07/14 06:40:05;;;;;;;6.72;1.77;;;23.40;53.50;;;;;;5037683;28;20032;-67
2022/07/14 06:42:31;;;;;;;5.82;1.70;;;23.30;53.90;;;;;;5043075;28;20032;-68
2022/07/14 06:44:56;;;;;;;3.67;1.40;;;23.00;54.10;;;;;;5044063;28;20021;-68
2022/07/14 06:47:22;;;;;;;5.45;1.77;;;22.90;54.50;;;;;;5040478;28;20030;-68
2022/07/14 06:49:47;;;;;;;5.55;1.30;;;22.60;54.50;;;;;;5039853;28;20423;-67
2022/07/14 06:52:13;;;;;;;3.85;1.10;;;22.50;55.10;;;;;;5040303;28;20480;-68
2022/07/14 06:54:39;;;;;;;3.42;1.20;;;22.50;55.20;;;;;;5041786;28;20021;-68
2022/07/14 06:57:04;;;;;;;4.78;1.30;;;22.40;55.20;;;;;;5042979;28;20116;-67
2022/07/14 06:59:30;;;;;;;3.13;1.25;;;22.40;54.90;;;;;;5044272;28;20082;-67
2022/07/14 07:01:56;;;;;;;2.83;1.05;;;22.30;55.30;;;;;;5040997;28;20042;-67
2022/07/14 07:04:23;;;;;;;4.10;1.25;;;22.40;55.50;;;;;;5037101;28;20118;-67
2022/07/14 07:06:50;;;;;;;4.43;1.10;;;22.40;55.40;;;;;;5040648;28;20549;-67
2022/07/14 07:09:18;;;;;;;3.10;1.00;;;22.30;55.10;;;;;;5041421;28;20016;-67
2022/07/14 07:11:45;;;;;;;6.45;1.40;;;22.30;55.30;;;;;;5041507;28;20025;-67
2022/07/14 07:14:11;;;;;;;3.45;1.10;;;22.30;55.30;;;;;;5038961;28;20029;-67
2022/07/14 07:16:37;;;;;;;2.72;1.00;;;22.40;55.20;;;;;;5033695;28;20037;-68
2022/07/14 07:19:03;;;;;;;4.35;1.05;;;22.60;54.90;;;;;;5036279;28;20049;-68
2022/07/14 07:21:29;;;;;;;3.80;1.10;;;22.60;54.30;;;;;;5038593;28;20040;-68
2022/07/14 07:23:55;;;;;;;3.50;1.13;;;22.80;54.20;;;;;;5037772;28;20029;-68
2022/07/14 07:26:24;;;;;;;2.65;0.93;;;22.90;54.00;;;;;;5040890;28;20025;-68
2022/07/14 07:28:52;;;;;;;4.82;1.20;;;23.10;53.80;;;;;;5031531;28;20021;-68
2022/07/14 07:31:18;;;;;;;3.35;1.20;;;22.70;52.80;;;;;;5035503;28;20080;-68
2022/07/14 07:33:45;;;;;;;3.53;1.02;;;22.80;53.50;;;;;;5040872;28;20547;-68
2022/07/14 07:36:11;;;;;;;2.90;1.10;;;23.00;53.60;;;;;;5041854;28;20052;-68
2022/07/14 07:38:36;;;;;;;3.95;1.00;;;23.30;53.00;;;;;;5037442;28;20061;-68
2022/07/14 07:41:02;;;;;;;3.90;1.02;;;23.40;52.60;;;;;;5041189;28;20070;-68
2022/07/14 07:43:28;;;;;;;4.00;1.08;;;23.50;52.50;;;;;;5044162;28;20047;-68
2022/07/14 07:45:54;;;;;;;3.22;1.00;;;23.50;52.30;;;;;;5044219;28;20557;-68
2022/07/14 07:48:20;;;;;;;3.13;1.10;;;23.50;52.40;;;;;;5043953;28;20051;-67
2022/07/14 07:50:46;;;;;;;3.00;1.13;;;23.50;52.00;;;;;;5042710;28;20040;-66
2022/07/14 07:53:12;;;;;;;3.03;0.85;;;23.40;51.90;;;;;;5045876;28;20083;-67
2022/07/14 07:55:38;;;;;;;4.20;1.05;;;23.50;51.50;;;;;;5042029;28;20065;-67
2022/07/14 07:58:05;;;;;;;2.53;0.95;;;23.50;50.90;;;;;;5040260;28;20084;-67
2022/07/14 08:00:31;;;;;;;2.65;0.98;;;23.50;51.40;;;;;;5039365;28;20025;-67
2022/07/14 08:02:57;;;;;;;3.15;0.90;;;23.60;50.70;;;;;;5043719;28;20033;-67
2022/07/14 08:05:25;;;;;;;3.28;1.02;;;23.80;50.90;;;;;;5045816;28;20033;-67
2022/07/14 08:07:52;;;;;;;3.90;1.00;;;23.90;50.40;;;;;;5038827;28;20033;-67
2022/07/14 08:10:18;;;;;;;2.50;1.00;;;24.10;50.00;;;;;;5033322;28;20048;-67
2022/07/14 08:12:44;;;;;;;3.20;1.00;;;24.20;49.90;;;;;;5037011;28;20752;-67
2022/07/14 08:15:10;;;;;;;2.95;1.10;;;24.20;49.40;;;;;;5042401;28;20060;-67
2022/07/14 08:17:36;;;;;;;2.50;1.10;;;24.10;48.80;;;;;;5044370;28;20072;-68
2022/07/14 08:20:03;;;;;;;3.05;1.02;;;24.30;49.00;;;;;;5040369;28;20137;-67
2022/07/14 08:22:29;;;;;;;4.32;1.00;;;24.40;48.70;;;;;;5041607;28;20034;-68
2022/07/14 08:24:55;;;;;;;2.38;0.90;;;24.40;48.30;;;;;;5040456;28;20032;-66
2022/07/14 08:27:22;;;;;;;4.22;1.02;;;24.60;48.30;;;;;;5045120;28;20584;-67
2022/07/14 08:29:48;;;;;;;2.00;0.93;;;24.50;47.60;;;;;;5046937;28;20028;-67
2022/07/14 08:32:13;;;;;;;4.00;1.27;;;24.60;47.70;;;;;;5046567;28;20044;-67
2022/07/14 08:34:39;;;;;;;3.42;0.80;;;24.60;47.60;;;;;;5050257;28;20052;-67
2022/07/14 08:37:05;;;;;;;2.22;0.80;;;24.60;47.40;;;;;;5050103;28;20491;-67
2022/07/14 08:39:31;;;;;;;3.08;1.00;;;24.80;47.20;;;;;;5048037;28;20442;-68
2022/07/14 08:41:59;;;;;;;2.80;0.80;;;24.90;47.00;;;;;;5041729;28;20082;-68
2022/07/14 08:44:26;;;;;;;3.50;0.98;;;25.00;46.90;;;;;;5042481;28;20040;-67
2022/07/14 08:46:53;;;;;;;2.75;0.98;;;25.00;46.50;;;;;;5044909;28;20062;-67
2022/07/14 08:49:19;;;;;;;2.45;0.98;;;25.00;46.20;;;;;;5044009;28;20029;-67
2022/07/14 08:51:45;;;;;;;2.30;0.85;;;24.90;46.20;;;;;;5048056;28;20021;-67
2022/07/14 08:54:11;;;;;;;4.25;1.02;;;24.80;46.20;;;;;;5044461;28;20116;-67
2022/07/14 08:56:38;;;;;;;2.40;0.90;;;24.90;46.20;;;;;;5040678;28;20128;-68
2022/07/14 08:59:04;;;;;;;2.53;1.05;;;25.00;45.70;;;;;;5045669;28;20062;-67
2022/07/14 09:01:30;;;;;;;4.03;1.05;;;25.00;45.80;;;;;;5040976;28;20064;-68
2022/07/14 09:03:56;;;;;;;2.22;0.70;;;25.00;45.70;;;;;;5049100;28;20089;-67
2022/07/14 09:06:42;;;;;;;4.03;1.02;;;25.10;45.80;;;;;;5046201;28;20025;-68
2022/07/14 09:09:07;;;;;;;2.95;1.00;;;25.20;45.40;;;;;;5035158;28;20541;-68
2022/07/14 09:11:33;;;;;;;2.42;0.75;;;25.10;45.00;;;;;;5042578;28;20091;-68
2022/07/14 09:14:09;;;;;;;3.67;1.08;;;25.20;45.10;;;;;;5043072;28;20037;-68
2022/07/14 09:16:35;;;;;;;2.47;0.80;;;25.10;44.00;;;;;;5047604;28;20044;-68
2022/07/14 09:19:08;;;;;;;2.42;0.70;;;24.90;43.80;;;;;;5045347;28;20056;-68
2022/07/14 09:21:35;;;;;;;2.80;0.90;;;25.00;44.10;;;;;;5040394;28;21736;-68
2022/07/14 09:24:01;;;;;;;5.35;0.93;;;25.00;44.00;;;;;;5044745;28;20053;-68
2022/07/14 09:26:27;;;;;;;2.38;0.80;;;25.10;43.60;;;;;;5045214;28;20110;-68
2022/07/14 09:28:53;;;;;;;1.98;0.90;;;25.30;43.70;;;;;;5044300;28;20036;-68
2022/07/14 09:31:22;;;;;;;2.20;0.65;;;25.40;43.60;;;;;;5045212;28;20467;-67
2022/07/14 09:33:58;;;;;;;1.95;0.70;;;25.50;43.40;;;;;;5044058;28;20037;-68
2022/07/14 09:36:30;;;;;;;1.75;0.70;;;25.60;43.70;;;;;;5043285;28;20029;-67
2022/07/14 09:39:02;;;;;;;1.95;0.90;;;25.50;42.50;;;;;;5045267;28;20051;-67
2022/07/14 09:41:29;;;;;;;1.90;0.73;;;25.50;43.20;;;;;;5048383;28;20028;-67
2022/07/14 09:44:16;;;;;;;3.50;0.80;;;25.50;43.40;;;;;;5043202;28;20384;-67
2022/07/14 09:46:43;;;;;;;1.23;0.60;;;25.50;42.30;;;;;;5041998;28;20045;-67
2022/07/14 09:49:09;;;;;;;2.25;0.80;;;25.60;42.10;;;;;;5048285;28;20037;-69
2022/07/14 09:51:53;;;;;;;1.95;0.90;;;25.80;41.60;;;;;;5042669;28;20029;-68
2022/07/14 09:54:37;;;;;;;2.00;1.00;;;25.80;41.60;;;;;;5044049;28;20029;-68
2022/07/14 09:57:19;;;;;;;1.05;0.65;;;26.10;41.60;;;;;;5039986;28;20025;-68
2022/07/14 09:59:57;;;;;;;1.30;0.70;;;26.30;41.50;;;;;;5043579;28;20025;-68
2022/07/14 10:02:26;;;;;;;2.88;0.77;;;26.20;41.00;;;;;;5040558;28;20491;-68
2022/07/14 10:04:54;;;;;;;2.15;0.88;;;26.10;40.80;;;;;;5044830;28;20052;-67
2022/07/14 10:07:22;;;;;;;2.40;0.80;;;26.10;41.10;;;;;;5045885;28;20020;-68
2022/07/14 10:10:08;;;;;;;2.78;0.88;;;26.10;41.10;;;;;;5041788;28;20476;-67
2022/07/14 10:12:36;;;;;;;1.83;0.90;;;26.10;40.60;;;;;;5045916;28;20555;-67
2022/07/14 10:15:04;;;;;;;2.03;0.70;;;26.20;40.30;;;;;;5052952;28;20032;-67
2022/07/14 10:17:31;;;;;;;1.92;0.70;;;26.20;39.90;;;;;;5048958;28;20021;-67
2022/07/14 10:19:57;;;;;;;1.85;0.68;;;26.20;40.10;;;;;;5044282;28;20066;-67
2022/07/14 10:22:23;;;;;;;2.65;0.73;;;26.10;40.10;;;;;;5045365;28;20029;-67
2022/07/14 10:24:50;;;;;;;1.35;0.60;;;26.10;40.30;;;;;;5045745;28;20029;-68
2022/07/14 10:27:19;;;;;;;2.20;0.98;;;26.00;40.30;;;;;;5043041;28;20029;-68
2022/07/14 10:29:52;;;;;;;2.40;0.90;;;26.00;40.00;;;;;;5038701;28;20018;-68
2022/07/14 10:32:33;;;;;;;2.05;0.82;;;25.90;39.60;;;;;;5043904;28;20502;-68
2022/07/14 10:35:10;;;;;;;1.23;0.60;;;25.80;39.80;;;;;;5043360;28;20052;-68
2022/07/14 10:38:18;;;;;;;1.60;0.70;;;25.80;39.90;;;;;;5043319;28;20120;-68
2022/07/14 10:41:06;;;;;;;1.40;0.80;;;25.80;40.10;;;;;;5039979;28;20022;-68
2022/07/14 10:44:02;;;;;;;2.60;1.17;;;26.10;40.10;;;;;;5044418;28;20024;-68
2022/07/14 10:47:13;;;;;;;2.92;0.70;;;26.20;39.10;;;;;;5045276;28;20033;-67
2022/07/14 10:50:07;;;;;;;2.67;1.00;;;26.50;39.10;;;;;;5043217;28;20104;-67
2022/07/14 10:52:36;;;;;;;1.35;0.80;;;26.90;38.50;;;;;;5044574;28;20109;-68
2022/07/14 10:55:13;;;;;;;1.35;0.75;;;27.00;38.30;;;;;;5048772;28;20028;-68
2022/07/14 10:57:38;;;;;;;1.20;0.73;;;26.90;38.20;;;;;;5045298;28;20483;-68
2022/07/14 11:00:06;;;;;;;2.13;0.70;;;26.90;38.30;;;;;;5041525;28;20031;-68
2022/07/14 11:02:33;;;;;;;2.58;0.73;;;27.00;38.40;;;;;;5035906;28;20033;-68
2022/07/14 11:05:07;;;;;;;1.65;0.80;;;27.10;38.50;;;;;;5041692;28;20029;-67
2022/07/14 11:07:50;;;;;;;1.73;0.80;;;27.20;38.40;;;;;;5039635;28;20511;-68
2022/07/14 11:10:19;;;;;;;3.00;1.10;;;27.00;38.40;;;;;;5047042;28;20021;-67
2022/07/14 11:12:59;;;;;;;2.15;1.00;;;26.90;38.40;;;;;;5039218;28;20029;-68
2022/07/14 11:15:40;;;;;;;2.75;1.00;;;26.90;38.80;;;;;;5039280;28;20024;-68
2022/07/14 11:18:18;;;;;;;2.50;0.80;;;26.90;38.80;;;;;;5044834;28;20538;-68
2022/07/14 11:21:02;;;;;;;3.25;1.20;;;27.00;39.00;;;;;;5042218;28;20021;-68
2022/07/14 11:23:57;;;;;;;2.33;0.75;;;27.00;38.70;;;;;;5037050;28;20065;-67
2022/07/14 11:26:32;;;;;;;2.15;0.88;;;26.90;38.80;;;;;;5036740;28;20026;-68
2022/07/14 11:28:59;;;;;;;3.70;0.95;;;26.90;38.60;;;;;;5043818;28;20091;-67
2022/07/14 11:31:25;;;;;;;1.88;0.77;;;26.90;38.20;;;;;;5037016;28;20456;-66
2022/07/14 11:37:00;;;;;;;3.08;0.85;;;26.90;38.30;;;;;;5039421;28;20093;-67
2022/07/14 11:39:32;;;;;;;2.05;0.77;;;26.70;38.60;;;;;;5039761;28;20031;-67
2022/07/14 11:42:09;;;;;;;1.48;0.70;;;26.80;39.10;;;;;;5038255;28;20634;-67
2022/07/14 11:44:40;;;;;;;2.65;0.90;;;26.80;39.20;;;;;;5041574;28;20079;-67
2022/07/14 11:47:18;;;;;;;2.30;0.93;;;26.80;39.30;;;;;;5038873;28;20029;-67
2022/07/14 11:49:53;;;;;;;1.50;0.90;;;26.90;39.50;;;;;;5043541;28;20017;-67
2022/07/14 11:52:29;;;;;;;3.20;0.80;;;26.90;39.00;;;;;;5040790;28;20380;-67
2022/07/14 11:54:57;;;;;;;2.65;1.05;;;26.80;38.80;;;;;;5044704;28;20025;-67
2022/07/14 11:57:23;;;;;;;2.00;0.70;;;26.80;38.70;;;;;;5037743;28;20044;-67
2022/07/14 11:59:49;;;;;;;2.72;0.70;;;26.80;38.80;;;;;;5042423;28;20084;-67
2022/07/14 12:02:17;;;;;;;1.88;0.90;;;26.80;38.70;;;;;;5039962;28;20029;-67
2022/07/14 12:04:56;;;;;;;1.80;0.80;;;26.80;38.60;;;;;;5042952;28;20659;-67
2022/07/14 12:07:24;;;;;;;2.28;0.90;;;26.80;38.70;;;;;;5035905;28;20108;-68
2022/07/14 12:09:50;;;;;;;1.88;0.70;;;26.90;38.70;;;;;;5042921;28;20075;-68
2022/07/14 12:12:18;;;;;;;2.42;0.63;;;26.90;38.50;;;;;;5038762;28;20021;-67
2022/07/14 12:14:49;;;;;;;2.03;0.60;;;27.00;38.60;;;;;;5044879;28;20029;-67
2022/07/14 12:17:16;;;;;;;2.55;0.70;;;27.20;38.40;;;;;;5041698;28;20037;-68
2022/07/14 12:19:42;;;;;;;1.58;0.80;;;27.30;38.50;;;;;;5041048;28;20433;-68
2022/07/14 12:22:08;;;;;;;1.58;0.80;;;27.30;38.10;;;;;;5037815;28;20036;-68
2022/07/14 12:24:34;;;;;;;3.45;1.20;;;27.30;37.80;;;;;;5040270;28;20507;-68
2022/07/14 12:27:08;;;;;;;2.17;0.60;;;27.20;37.70;;;;;;5037521;28;20037;-68
2022/07/14 12:29:35;;;;;;;2.08;1.00;;;27.20;37.80;;;;;;5046290;28;20032;-66
2022/07/14 12:32:02;;;;;;;1.95;0.90;;;27.20;37.70;;;;;;5040649;28;20086;-68
2022/07/14 12:34:30;;;;;;;2.38;0.77;;;27.10;37.50;;;;;;5047821;28;20578;-67
2022/07/14 12:37:00;;;;;;;1.40;0.80;;;27.00;37.60;;;;;;5045043;28;20021;-67
2022/07/14 12:39:28;;;;;;;2.07;0.80;;;27.00;38.10;;;;;;5042990;28;20144;-67
2022/07/14 12:41:54;;;;;;;1.92;0.75;;;27.10;37.90;;;;;;5045011;28;20045;-67
2022/07/14 12:44:19;;;;;;;2.33;0.80;;;27.40;37.90;;;;;;5046178;28;20130;-68
2022/07/14 12:46:45;;;;;;;1.42;0.90;;;27.50;36.90;;;;;;5039765;28;20492;-67
2022/07/14 12:49:10;;;;;;;3.05;0.90;;;27.60;36.30;;;;;;5046614;28;20025;-68
2022/07/14 12:51:44;;;;;;;2.22;0.95;;;27.70;36.20;;;;;;5047971;28;20068;-68
2022/07/14 12:54:19;;;;;;;2.13;0.80;;;27.90;36.00;;;;;;5048348;28;20048;-68
2022/07/14 12:56:53;;;;;;;2.40;0.80;;;28.00;36.00;;;;;;5047400;28;20353;-68
2022/07/14 12:59:22;;;;;;;2.03;0.70;;;28.10;35.60;;;;;;5044778;28;20343;-68